sensor_id;sensor_type;location;lat;lon;timestamp;temperature;humidity
22418;DHT22;11376;50.932;4.442;2022-07-23T00:00:29;18.00;99.90
22418;DHT22;11376;50.932;4.442;2022-07-23T00:02:55;18.00;99.90
22418;DHT22;11376;50.932;4.442;2022-07-23T00:05:20;17.90;99.90
22418;DHT22;11376;50.932;4.442;2022-07-23T00:07:46;17.90;99.90
22418;DHT22;11376;50.932;4.442;2022-07-23T00:10:11;17.90;99.90
22418;DHT22;11376;50.932;4.442;2022-07-23T00:12:38;17.90;99.90
22418;DHT22;11376;50.932;4.442;2022-07-23T00:15:05;17.90;99.90
22418;DHT22;11376;50.932;4.442;2022-07-23T00:17:31;17.80;99.90
22418;DHT22;11376;50.932;4.442;2022-07-23T00:19:57;17.80;99.90
22418;DHT22;11376;50.932;4.442;2022-07-23T00:22:22;17.80;99.90
22418;DHT22;11376;50.932;4.442;2022-07-23T00:24:48;17.80;99.90
22418;DHT22;11376;50.932;4.442;2022-07-23T00:27:13;17.70;99.90
22418;DHT22;11376;50.932;4.442;2022-07-23T00:29:39;17.70;99.90
22418;DHT22;11376;50.932;4.442;2022-07-23T00:32:05;17.70;99.90
22418;DHT22;11376;50.932;4.442;2022-07-23T00:34:30;17.70;99.90
22418;DHT22;11376;50.932;4.442;2022-07-23T00:36:56;17.60;99.90
22418;DHT22;11376;50.932;4.442;2022-07-23T00:39:22;17.60;99.90
22418;DHT22;11376;50.932;4.442;2022-07-23T00:41:49;17.60;99.90
22418;DHT22;11376;50.932;4.442;2022-07-23T00:44:23;17.60;99.90
22418;DHT22;11376;50.932;4.442;2022-07-23T00:46:54;17.50;99.90
22418;DHT22;11376;50.932;4.442;2022-07-23T00:49:22;17.50;99.90
22418;DHT22;11376;50.932;4.442;2022-07-23T00:51:49;17.50;99.90
22418;DHT22;11376;50.932;4.442;2022-07-23T00:54:16;17.50;99.90
22418;DHT22;11376;50.932;4.442;2022-07-23T00:56:46;17.40;99.90
22418;DHT22;11376;50.932;4.442;2022-07-23T00:59:12;17.40;99.90
22418;DHT22;11376;50.932;4.442;2022-07-23T01:01:38;17.40;99.90
22418;DHT22;11376;50.932;4.442;2022-07-23T01:04:04;17.30;99.90
22418;DHT22;11376;50.932;4.442;2022-07-23T01:06:36;17.30;99.90
22418;DHT22;11376;50.932;4.442;2022-07-23T01:09:06;17.30;99.90
22418;DHT22;11376;50.932;4.442;2022-07-23T01:11:36;17.30;99.90
22418;DHT22;11376;50.932;4.442;2022-07-23T01:14:14;17.30;99.90
22418;DHT22;11376;50.932;4.442;2022-07-23T01:16:41;17.30;99.90
22418;DHT22;11376;50.932;4.442;2022-07-23T01:19:07;17.20;99.90
22418;DHT22;11376;50.932;4.442;2022-07-23T01:21:40;17.20;99.90
22418;DHT22;11376;50.932;4.442;2022-07-23T01:24:07;17.20;99.90
22418;DHT22;11376;50.932;4.442;2022-07-23T01:26:33;17.20;99.90
22418;DHT22;11376;50.932;4.442;2022-07-23T01:28:59;17.20;99.90
22418;DHT22;11376;50.932;4.442;2022-07-23T01:31:25;17.10;99.90
22418;DHT22;11376;50.932;4.442;2022-07-23T01:33:51;17.10;99.90
22418;DHT22;11376;50.932;4.442;2022-07-23T01:36:16;17.10;99.90
22418;DHT22;11376;50.932;4.442;2022-07-23T01:38:42;17.10;99.90
22418;DHT22;11376;50.932;4.442;2022-07-23T01:41:07;17.10;99.90
22418;DHT22;11376;50.932;4.442;2022-07-23T01:43:33;17.10;99.90
22418;DHT22;11376;50.932;4.442;2022-07-23T01:45:58;17.00;99.90
22418;DHT22;11376;50.932;4.442;2022-07-23T01:48:24;17.00;99.90
22418;DHT22;11376;50.932;4.442;2022-07-23T01:50:49;17.00;99.90
22418;DHT22;11376;50.932;4.442;2022-07-23T01:53:15;17.00;99.90
22418;DHT22;11376;50.932;4.442;2022-07-23T01:55:41;17.00;99.90
22418;DHT22;11376;50.932;4.442;2022-07-23T01:58:07;16.90;99.90
22418;DHT22;11376;50.932;4.442;2022-07-23T02:00:33;16.90;99.90
22418;DHT22;11376;50.932;4.442;2022-07-23T02:02:59;16.90;99.90
22418;DHT22;11376;50.932;4.442;2022-07-23T02:05:25;16.90;99.90
22418;DHT22;11376;50.932;4.442;2022-07-23T02:07:51;16.90;99.90
22418;DHT22;11376;50.932;4.442;2022-07-23T02:10:18;16.80;99.90
22418;DHT22;11376;50.932;4.442;2022-07-23T02:12:43;16.80;99.90
22418;DHT22;11376;50.932;4.442;2022-07-23T02:15:09;16.80;99.90
22418;DHT22;11376;50.932;4.442;2022-07-23T02:17:35;16.80;99.90
22418;DHT22;11376;50.932;4.442;2022-07-23T02:20:01;16.80;99.90
22418;DHT22;11376;50.932;4.442;2022-07-23T02:22:26;16.70;99.90
22418;DHT22;11376;50.932;4.442;2022-07-23T02:24:52;16.70;99.90
22418;DHT22;11376;50.932;4.442;2022-07-23T02:27:17;16.70;99.90
22418;DHT22;11376;50.932;4.442;2022-07-23T02:29:43;16.60;99.90
22418;DHT22;11376;50.932;4.442;2022-07-23T02:32:08;16.60;99.90
22418;DHT22;11376;50.932;4.442;2022-07-23T02:34:34;16.60;99.90
22418;DHT22;11376;50.932;4.442;2022-07-23T02:37:00;16.60;99.90
22418;DHT22;11376;50.932;4.442;2022-07-23T02:39:26;16.60;99.90
22418;DHT22;11376;50.932;4.442;2022-07-23T02:41:52;16.60;99.90
22418;DHT22;11376;50.932;4.442;2022-07-23T02:44:18;16.60;99.90
22418;DHT22;11376;50.932;4.442;2022-07-23T02:46:43;16.60;99.90
22418;DHT22;11376;50.932;4.442;2022-07-23T02:49:09;16.60;99.90
22418;DHT22;11376;50.932;4.442;2022-07-23T02:51:34;16.60;99.90
22418;DHT22;11376;50.932;4.442;2022-07-23T02:54:00;16.50;99.90
22418;DHT22;11376;50.932;4.442;2022-07-23T02:56:26;16.50;99.90
22418;DHT22;11376;50.932;4.442;2022-07-23T02:58:51;16.50;99.90
22418;DHT22;11376;50.932;4.442;2022-07-23T03:01:17;16.50;99.90
22418;DHT22;11376;50.932;4.442;2022-07-23T03:03:42;16.50;99.90
22418;DHT22;11376;50.932;4.442;2022-07-23T03:06:08;16.50;99.90
22418;DHT22;11376;50.932;4.442;2022-07-23T03:08:34;16.50;99.90
22418;DHT22;11376;50.932;4.442;2022-07-23T03:10:59;16.50;99.90
22418;DHT22;11376;50.932;4.442;2022-07-23T03:13:25;16.50;99.90
22418;DHT22;11376;50.932;4.442;2022-07-23T03:15:51;16.50;99.90
22418;DHT22;11376;50.932;4.442;2022-07-23T03:18:17;16.50;99.90
22418;DHT22;11376;50.932;4.442;2022-07-23T03:20:42;16.50;99.90
22418;DHT22;11376;50.932;4.442;2022-07-23T03:23:08;16.50;99.90
22418;DHT22;11376;50.932;4.442;2022-07-23T03:25:33;16.40;99.90
22418;DHT22;11376;50.932;4.442;2022-07-23T03:27:59;16.40;99.90
22418;DHT22;11376;50.932;4.442;2022-07-23T03:30:24;16.40;99.90
22418;DHT22;11376;50.932;4.442;2022-07-23T03:32:50;16.40;99.90
22418;DHT22;11376;50.932;4.442;2022-07-23T03:35:15;16.40;99.90
22418;DHT22;11376;50.932;4.442;2022-07-23T03:37:41;16.40;99.90
22418;DHT22;11376;50.932;4.442;2022-07-23T03:40:07;16.40;99.90
22418;DHT22;11376;50.932;4.442;2022-07-23T03:42:33;16.40;99.90
22418;DHT22;11376;50.932;4.442;2022-07-23T03:44:58;16.40;99.90
22418;DHT22;11376;50.932;4.442;2022-07-23T03:47:24;16.30;99.90
22418;DHT22;11376;50.932;4.442;2022-07-23T03:49:50;16.30;99.90
22418;DHT22;11376;50.932;4.442;2022-07-23T03:52:15;16.30;99.90
22418;DHT22;11376;50.932;4.442;2022-07-23T03:54:41;16.30;99.90
22418;DHT22;11376;50.932;4.442;2022-07-23T03:57:06;16.30;99.90
22418;DHT22;11376;50.932;4.442;2022-07-23T03:59:32;16.30;99.90
22418;DHT22;11376;50.932;4.442;2022-07-23T04:01:58;16.30;99.90
22418;DHT22;11376;50.932;4.442;2022-07-23T04:04:24;16.30;99.90
22418;DHT22;11376;50.932;4.442;2022-07-23T04:06:49;16.30;99.90
22418;DHT22;11376;50.932;4.442;2022-07-23T04:09:15;16.20;99.90
22418;DHT22;11376;50.932;4.442;2022-07-23T04:11:41;16.30;99.90
22418;DHT22;11376;50.932;4.442;2022-07-23T04:14:06;16.30;99.90
22418;DHT22;11376;50.932;4.442;2022-07-23T04:16:32;16.30;99.90
22418;DHT22;11376;50.932;4.442;2022-07-23T04:18:58;16.30;99.90
22418;DHT22;11376;50.932;4.442;2022-07-23T04:21:24;16.30;99.90
22418;DHT22;11376;50.932;4.442;2022-07-23T04:23:49;16.30;99.90
22418;DHT22;11376;50.932;4.442;2022-07-23T04:26:15;16.30;99.90
22418;DHT22;11376;50.932;4.442;2022-07-23T04:28:41;16.30;99.90
22418;DHT22;11376;50.932;4.442;2022-07-23T04:31:07;16.40;99.90
22418;DHT22;11376;50.932;4.442;2022-07-23T04:33:33;16.40;99.90
22418;DHT22;11376;50.932;4.442;2022-07-23T04:35:59;16.40;99.90
22418;DHT22;11376;50.932;4.442;2022-07-23T04:38:24;16.40;99.90
22418;DHT22;11376;50.932;4.442;2022-07-23T04:40:50;16.50;99.90
22418;DHT22;11376;50.932;4.442;2022-07-23T04:43:15;16.50;99.90
22418;DHT22;11376;50.932;4.442;2022-07-23T04:45:41;16.50;99.90
22418;DHT22;11376;50.932;4.442;2022-07-23T04:48:06;16.50;99.90
22418;DHT22;11376;50.932;4.442;2022-07-23T04:50:32;16.50;99.90
22418;DHT22;11376;50.932;4.442;2022-07-23T04:52:58;16.60;99.90
22418;DHT22;11376;50.932;4.442;2022-07-23T04:55:24;16.60;99.90
22418;DHT22;11376;50.932;4.442;2022-07-23T04:57:49;16.70;99.90
22418;DHT22;11376;50.932;4.442;2022-07-23T05:00:15;16.70;99.90
22418;DHT22;11376;50.932;4.442;2022-07-23T05:02:41;16.70;99.90
22418;DHT22;11376;50.932;4.442;2022-07-23T05:05:07;16.80;99.90
22418;DHT22;11376;50.932;4.442;2022-07-23T05:07:32;16.90;99.90
22418;DHT22;11376;50.932;4.442;2022-07-23T05:09:58;16.90;99.90
22418;DHT22;11376;50.932;4.442;2022-07-23T05:12:24;17.00;99.90
22418;DHT22;11376;50.932;4.442;2022-07-23T05:14:49;17.10;99.90
22418;DHT22;11376;50.932;4.442;2022-07-23T05:17:15;17.20;99.90
22418;DHT22;11376;50.932;4.442;2022-07-23T05:19:40;17.30;99.90
22418;DHT22;11376;50.932;4.442;2022-07-23T05:22:06;17.40;99.90
22418;DHT22;11376;50.932;4.442;2022-07-23T05:24:32;17.60;99.90
22418;DHT22;11376;50.932;4.442;2022-07-23T05:26:57;17.80;99.90
22418;DHT22;11376;50.932;4.442;2022-07-23T05:29:23;17.90;99.90
22418;DHT22;11376;50.932;4.442;2022-07-23T05:31:48;18.10;99.90
22418;DHT22;11376;50.932;4.442;2022-07-23T05:34:14;18.30;99.90
22418;DHT22;11376;50.932;4.442;2022-07-23T05:36:40;18.40;99.90
22418;DHT22;11376;50.932;4.442;2022-07-23T05:39:05;18.60;99.90
22418;DHT22;11376;50.932;4.442;2022-07-23T05:41:31;18.70;99.90
22418;DHT22;11376;50.932;4.442;2022-07-23T05:43:57;18.90;99.90
22418;DHT22;11376;50.932;4.442;2022-07-23T05:46:22;19.00;99.90
22418;DHT22;11376;50.932;4.442;2022-07-23T05:48:48;19.00;99.90
22418;DHT22;11376;50.932;4.442;2022-07-23T05:51:25;19.20;99.90
22418;DHT22;11376;50.932;4.442;2022-07-23T05:53:51;19.20;99.90
22418;DHT22;11376;50.932;4.442;2022-07-23T05:56:18;19.30;99.90
22418;DHT22;11376;50.932;4.442;2022-07-23T05:58:44;19.40;99.90
22418;DHT22;11376;50.932;4.442;2022-07-23T06:01:10;19.40;99.90
22418;DHT22;11376;50.932;4.442;2022-07-23T06:03:38;19.50;99.90
22418;DHT22;11376;50.932;4.442;2022-07-23T06:06:04;19.50;99.90
22418;DHT22;11376;50.932;4.442;2022-07-23T06:08:29;19.60;99.90
22418;DHT22;11376;50.932;4.442;2022-07-23T06:10:55;19.60;99.90
22418;DHT22;11376;50.932;4.442;2022-07-23T06:13:21;19.50;99.90
22418;DHT22;11376;50.932;4.442;2022-07-23T06:15:46;19.60;99.90
22418;DHT22;11376;50.932;4.442;2022-07-23T06:18:12;19.60;99.90
22418;DHT22;11376;50.932;4.442;2022-07-23T06:20:37;19.70;99.90
22418;DHT22;11376;50.932;4.442;2022-07-23T06:23:04;19.70;99.90
22418;DHT22;11376;50.932;4.442;2022-07-23T06:25:29;19.70;99.90
22418;DHT22;11376;50.932;4.442;2022-07-23T06:27:55;19.70;99.90
22418;DHT22;11376;50.932;4.442;2022-07-23T06:30:21;19.70;99.90
22418;DHT22;11376;50.932;4.442;2022-07-23T06:32:47;19.80;99.90
22418;DHT22;11376;50.932;4.442;2022-07-23T06:35:13;19.80;99.90
22418;DHT22;11376;50.932;4.442;2022-07-23T06:37:39;19.90;99.90
22418;DHT22;11376;50.932;4.442;2022-07-23T06:40:05;20.00;99.90
22418;DHT22;11376;50.932;4.442;2022-07-23T06:42:31;20.00;99.90
22418;DHT22;11376;50.932;4.442;2022-07-23T06:44:56;20.20;99.90
22418;DHT22;11376;50.932;4.442;2022-07-23T06:47:22;20.30;99.90
22418;DHT22;11376;50.932;4.442;2022-07-23T06:49:48;20.30;99.90
22418;DHT22;11376;50.932;4.442;2022-07-23T06:52:14;20.40;99.90
22418;DHT22;11376;50.932;4.442;2022-07-23T06:54:39;20.30;99.90
22418;DHT22;11376;50.932;4.442;2022-07-23T06:57:05;20.40;99.90
22418;DHT22;11376;50.932;4.442;2022-07-23T06:59:31;20.40;99.90
22418;DHT22;11376;50.932;4.442;2022-07-23T07:01:56;20.60;99.90
22418;DHT22;11376;50.932;4.442;2022-07-23T07:04:23;20.60;99.90
22418;DHT22;11376;50.932;4.442;2022-07-23T07:06:49;20.70;99.90
22418;DHT22;11376;50.932;4.442;2022-07-23T07:09:14;20.80;99.90
22418;DHT22;11376;50.932;4.442;2022-07-23T07:11:40;20.80;99.90
22418;DHT22;11376;50.932;4.442;2022-07-23T07:14:05;20.80;99.90
22418;DHT22;11376;50.932;4.442;2022-07-23T07:16:32;20.90;99.90
22418;DHT22;11376;50.932;4.442;2022-07-23T07:18:57;21.00;99.90
22418;DHT22;11376;50.932;4.442;2022-07-23T07:21:23;21.10;99.90
22418;DHT22;11376;50.932;4.442;2022-07-23T07:23:48;21.30;99.90
22418;DHT22;11376;50.932;4.442;2022-07-23T07:26:14;21.30;99.90
22418;DHT22;11376;50.932;4.442;2022-07-23T07:28:40;21.30;99.90
22418;DHT22;11376;50.932;4.442;2022-07-23T07:31:05;21.30;99.90
22418;DHT22;11376;50.932;4.442;2022-07-23T07:33:31;21.30;99.90
22418;DHT22;11376;50.932;4.442;2022-07-23T07:35:56;21.40;99.90
22418;DHT22;11376;50.932;4.442;2022-07-23T07:38:25;21.50;99.90
22418;DHT22;11376;50.932;4.442;2022-07-23T07:40:50;21.50;99.90
22418;DHT22;11376;50.932;4.442;2022-07-23T07:43:16;21.60;99.90
22418;DHT22;11376;50.932;4.442;2022-07-23T07:45:42;21.70;99.90
22418;DHT22;11376;50.932;4.442;2022-07-23T07:48:07;21.80;99.90
22418;DHT22;11376;50.932;4.442;2022-07-23T07:50:33;22.00;99.90
22418;DHT22;11376;50.932;4.442;2022-07-23T07:52:58;22.10;99.90
22418;DHT22;11376;50.932;4.442;2022-07-23T07:55:24;22.10;99.90
22418;DHT22;11376;50.932;4.442;2022-07-23T07:57:50;22.30;99.90
22418;DHT22;11376;50.932;4.442;2022-07-23T08:00:16;22.40;99.90
22418;DHT22;11376;50.932;4.442;2022-07-23T08:02:46;22.50;99.90
22418;DHT22;11376;50.932;4.442;2022-07-23T08:05:13;22.70;99.90
22418;DHT22;11376;50.932;4.442;2022-07-23T08:07:39;22.80;99.90
22418;DHT22;11376;50.932;4.442;2022-07-23T08:10:06;22.90;99.90
22418;DHT22;11376;50.932;4.442;2022-07-23T08:12:46;23.00;99.90
22418;DHT22;11376;50.932;4.442;2022-07-23T08:15:17;23.20;99.90
22418;DHT22;11376;50.932;4.442;2022-07-23T08:17:45;23.30;99.90
22418;DHT22;11376;50.932;4.442;2022-07-23T08:20:12;23.40;99.90
22418;DHT22;11376;50.932;4.442;2022-07-23T08:22:50;23.50;99.90
22418;DHT22;11376;50.932;4.442;2022-07-23T08:25:36;23.60;99.90
22418;DHT22;11376;50.932;4.442;2022-07-23T08:28:04;23.70;99.90
22418;DHT22;11376;50.932;4.442;2022-07-23T08:30:31;23.90;99.90
22418;DHT22;11376;50.932;4.442;2022-07-23T08:32:58;24.00;99.90
22418;DHT22;11376;50.932;4.442;2022-07-23T08:37:59;24.20;99.90
22418;DHT22;11376;50.932;4.442;2022-07-23T08:40:26;24.30;99.90
22418;DHT22;11376;50.932;4.442;2022-07-23T08:42:52;24.40;99.90
22418;DHT22;11376;50.932;4.442;2022-07-23T08:45:21;24.50;99.90
22418;DHT22;11376;50.932;4.442;2022-07-23T08:47:51;24.50;99.90
22418;DHT22;11376;50.932;4.442;2022-07-23T08:50:17;24.40;99.90
22418;DHT22;11376;50.932;4.442;2022-07-23T08:52:43;24.30;99.90
22418;DHT22;11376;50.932;4.442;2022-07-23T08:55:09;24.20;99.90
22418;DHT22;11376;50.932;4.442;2022-07-23T08:57:35;24.30;99.90
22418;DHT22;11376;50.932;4.442;2022-07-23T09:00:00;24.30;99.90
22418;DHT22;11376;50.932;4.442;2022-07-23T09:02:26;24.30;99.90
22418;DHT22;11376;50.932;4.442;2022-07-23T09:04:52;24.40;99.90
22418;DHT22;11376;50.932;4.442;2022-07-23T09:07:18;24.50;99.90
22418;DHT22;11376;50.932;4.442;2022-07-23T09:09:43;24.60;99.90
22418;DHT22;11376;50.932;4.442;2022-07-23T09:12:10;24.70;99.90
22418;DHT22;11376;50.932;4.442;2022-07-23T09:14:41;24.90;99.90
22418;DHT22;11376;50.932;4.442;2022-07-23T09:19:35;25.30;99.90
22418;DHT22;11376;50.932;4.442;2022-07-23T09:22:37;25.40;99.90
22418;DHT22;11376;50.932;4.442;2022-07-23T09:25:10;25.60;99.90
22418;DHT22;11376;50.932;4.442;2022-07-23T09:30:20;25.80;99.90
22418;DHT22;11376;50.932;4.442;2022-07-23T09:33:13;26.00;99.90
22418;DHT22;11376;50.932;4.442;2022-07-23T09:38:14;26.20;99.90
22418;DHT22;11376;50.932;4.442;2022-07-23T09:40:40;26.30;99.90
22418;DHT22;11376;50.932;4.442;2022-07-23T09:43:06;26.60;99.90
22418;DHT22;11376;50.932;4.442;2022-07-23T09:45:31;26.70;99.90
22418;DHT22;11376;50.932;4.442;2022-07-23T09:48:14;26.80;99.90
22418;DHT22;11376;50.932;4.442;2022-07-23T09:50:41;26.90;99.90
22418;DHT22;11376;50.932;4.442;2022-07-23T09:53:07;26.90;99.90
22418;DHT22;11376;50.932;4.442;2022-07-23T09:55:34;26.90;99.90
22418;DHT22;11376;50.932;4.442;2022-07-23T09:58:06;27.00;99.90
22418;DHT22;11376;50.932;4.442;2022-07-23T10:00:38;27.00;99.90
22418;DHT22;11376;50.932;4.442;2022-07-23T10:03:06;27.10;99.90
22418;DHT22;11376;50.932;4.442;2022-07-23T10:05:33;27.20;99.90
22418;DHT22;11376;50.932;4.442;2022-07-23T10:08:02;27.20;99.90
22418;DHT22;11376;50.932;4.442;2022-07-23T10:10:28;27.30;99.90
22418;DHT22;11376;50.932;4.442;2022-07-23T10:12:55;27.40;99.90
22418;DHT22;11376;50.932;4.442;2022-07-23T10:15:41;27.50;99.90
22418;DHT22;11376;50.932;4.442;2022-07-23T10:18:10;27.60;99.90
22418;DHT22;11376;50.932;4.442;2022-07-23T10:20:36;27.70;99.90
22418;DHT22;11376;50.932;4.442;2022-07-23T10:23:19;27.80;99.90
22418;DHT22;11376;50.932;4.442;2022-07-23T10:25:55;28.00;99.90
22418;DHT22;11376;50.932;4.442;2022-07-23T10:36:31;28.70;99.90
22418;DHT22;11376;50.932;4.442;2022-07-23T10:39:33;28.90;99.90
22418;DHT22;11376;50.932;4.442;2022-07-23T10:42:11;29.10;99.90
22418;DHT22;11376;50.932;4.442;2022-07-23T10:44:42;29.30;99.90
22418;DHT22;11376;50.932;4.442;2022-07-23T10:47:09;29.50;99.90
22418;DHT22;11376;50.932;4.442;2022-07-23T10:49:50;29.70;97.90
22418;DHT22;11376;50.932;4.442;2022-07-23T10:52:24;29.80;94.50
22418;DHT22;11376;50.932;4.442;2022-07-23T10:57:49;29.50;94.80
22418;DHT22;11376;50.932;4.442;2022-07-23T11:00:20;29.60;96.30
22418;DHT22;11376;50.932;4.442;2022-07-23T11:02:48;29.70;97.40
22418;DHT22;11376;50.932;4.442;2022-07-23T11:05:19;30.00;97.00
22418;DHT22;11376;50.932;4.442;2022-07-23T11:13:37;31.60;95.80
22418;DHT22;11376;50.932;4.442;2022-07-23T11:16:21;32.40;94.80
22418;DHT22;11376;50.932;4.442;2022-07-23T11:18:55;33.20;92.00
22418;DHT22;11376;50.932;4.442;2022-07-23T11:31:52;43.90;46.20
22418;DHT22;11376;50.932;4.442;2022-07-23T11:36:57;46.70;35.90
22418;DHT22;11376;50.932;4.442;2022-07-23T11:39:25;47.30;33.60
22418;DHT22;11376;50.932;4.442;2022-07-23T11:41:56;47.90;31.50
22418;DHT22;11376;50.932;4.442;2022-07-23T11:47:03;47.30;30.50
22418;DHT22;11376;50.932;4.442;2022-07-23T11:49:29;47.60;31.00
22418;DHT22;11376;50.932;4.442;2022-07-23T11:52:13;48.10;29.70
22418;DHT22;11376;50.932;4.442;2022-07-23T11:54:51;48.50;29.50
22418;DHT22;11376;50.932;4.442;2022-07-23T11:57:17;49.90;29.90
22418;DHT22;11376;50.932;4.442;2022-07-23T11:59:46;51.60;28.60
22418;DHT22;11376;50.932;4.442;2022-07-23T12:02:12;52.70;27.80
22418;DHT22;11376;50.932;4.442;2022-07-23T12:07:22;53.20;25.30
22418;DHT22;11376;50.932;4.442;2022-07-23T12:09:47;52.60;25.40
22418;DHT22;11376;50.932;4.442;2022-07-23T12:12:13;53.00;25.70
22418;DHT22;11376;50.932;4.442;2022-07-23T12:14:55;53.80;24.50
22418;DHT22;11376;50.932;4.442;2022-07-23T12:17:31;54.70;24.40
22418;DHT22;11376;50.932;4.442;2022-07-23T12:20:01;55.70;23.40
22418;DHT22;11376;50.932;4.442;2022-07-23T12:22:47;56.30;22.70
22418;DHT22;11376;50.932;4.442;2022-07-23T12:25:17;56.00;22.50
22418;DHT22;11376;50.932;4.442;2022-07-23T12:27:44;55.70;22.30
22418;DHT22;11376;50.932;4.442;2022-07-23T12:30:26;55.80;22.10
22418;DHT22;11376;50.932;4.442;2022-07-23T12:32:55;56.00;22.10
22418;DHT22;11376;50.932;4.442;2022-07-23T12:35:22;56.60;21.30
22418;DHT22;11376;50.932;4.442;2022-07-23T12:37:50;56.10;21.40
22418;DHT22;11376;50.932;4.442;2022-07-23T12:40:45;55.90;22.80
22418;DHT22;11376;50.932;4.442;2022-07-23T12:43:22;56.20;21.50
22418;DHT22;11376;50.932;4.442;2022-07-23T12:45:51;56.50;21.00
22418;DHT22;11376;50.932;4.442;2022-07-23T12:48:34;56.60;21.80
22418;DHT22;11376;50.932;4.442;2022-07-23T12:53:29;57.10;22.10
22418;DHT22;11376;50.932;4.442;2022-07-23T12:56:12;57.40;22.00
22418;DHT22;11376;50.932;4.442;2022-07-23T13:04:01;54.40;23.30
22418;DHT22;11376;50.932;4.442;2022-07-23T13:06:30;54.40;22.40
22418;DHT22;11376;50.932;4.442;2022-07-23T13:08:56;55.20;23.20
22418;DHT22;11376;50.932;4.442;2022-07-23T13:11:22;54.20;22.60
22418;DHT22;11376;50.932;4.442;2022-07-23T13:13:47;52.70;24.10
22418;DHT22;11376;50.932;4.442;2022-07-23T13:16:13;52.60;23.50
22418;DHT22;11376;50.932;4.442;2022-07-23T13:18:38;51.70;24.50
22418;DHT22;11376;50.932;4.442;2022-07-23T13:21:04;50.60;24.10
22418;DHT22;11376;50.932;4.442;2022-07-23T13:23:30;50.00;23.80
22418;DHT22;11376;50.932;4.442;2022-07-23T13:25:56;48.60;24.50
22418;DHT22;11376;50.932;4.442;2022-07-23T13:28:22;46.60;25.70
22418;DHT22;11376;50.932;4.442;2022-07-23T13:30:49;45.20;28.80
22418;DHT22;11376;50.932;4.442;2022-07-23T13:33:20;44.30;27.80
22418;DHT22;11376;50.932;4.442;2022-07-23T13:35:46;43.90;29.90
22418;DHT22;11376;50.932;4.442;2022-07-23T13:38:12;43.90;28.10
22418;DHT22;11376;50.932;4.442;2022-07-23T13:40:39;44.30;29.00
22418;DHT22;11376;50.932;4.442;2022-07-23T13:43:06;45.60;28.10
22418;DHT22;11376;50.932;4.442;2022-07-23T13:45:33;47.20;26.50
22418;DHT22;11376;50.932;4.442;2022-07-23T13:47:58;48.50;25.30
22418;DHT22;11376;50.932;4.442;2022-07-23T13:50:24;49.50;24.70
22418;DHT22;11376;50.932;4.442;2022-07-23T13:52:50;49.60;25.00
22418;DHT22;11376;50.932;4.442;2022-07-23T13:55:15;49.30;26.40
22418;DHT22;11376;50.932;4.442;2022-07-23T13:57:41;48.60;25.60
22418;DHT22;11376;50.932;4.442;2022-07-23T14:00:08;47.70;25.60
22418;DHT22;11376;50.932;4.442;2022-07-23T14:02:36;45.90;26.40
22418;DHT22;11376;50.932;4.442;2022-07-23T14:05:04;44.20;27.80
22418;DHT22;11376;50.932;4.442;2022-07-23T14:07:30;42.70;29.20
22418;DHT22;11376;50.932;4.442;2022-07-23T14:09:56;41.70;30.20
22418;DHT22;11376;50.932;4.442;2022-07-23T14:12:21;40.50;31.00
22418;DHT22;11376;50.932;4.442;2022-07-23T14:14:47;39.20;32.50
22418;DHT22;11376;50.932;4.442;2022-07-23T14:17:13;38.30;34.50
22418;DHT22;11376;50.932;4.442;2022-07-23T14:19:38;37.70;34.90
22418;DHT22;11376;50.932;4.442;2022-07-23T14:22:04;37.90;35.10
22418;DHT22;11376;50.932;4.442;2022-07-23T14:24:30;39.40;34.20
22418;DHT22;11376;50.932;4.442;2022-07-23T14:26:55;40.80;33.20
22418;DHT22;11376;50.932;4.442;2022-07-23T14:29:21;41.30;32.60
22418;DHT22;11376;50.932;4.442;2022-07-23T14:31:46;42.10;33.40
22418;DHT22;11376;50.932;4.442;2022-07-23T14:34:12;42.90;31.30
22418;DHT22;11376;50.932;4.442;2022-07-23T14:36:38;43.20;30.30
22418;DHT22;11376;50.932;4.442;2022-07-23T14:39:03;43.00;30.00
22418;DHT22;11376;50.932;4.442;2022-07-23T14:41:29;42.90;30.10
22418;DHT22;11376;50.932;4.442;2022-07-23T14:43:55;43.00;30.00
22418;DHT22;11376;50.932;4.442;2022-07-23T14:46:21;43.30;30.30
22418;DHT22;11376;50.932;4.442;2022-07-23T14:48:47;43.50;30.60
22418;DHT22;11376;50.932;4.442;2022-07-23T14:51:12;44.40;30.70
22418;DHT22;11376;50.932;4.442;2022-07-23T14:53:38;45.20;29.90
22418;DHT22;11376;50.932;4.442;2022-07-23T14:56:04;45.30;28.70
22418;DHT22;11376;50.932;4.442;2022-07-23T14:58:30;45.00;29.00
22418;DHT22;11376;50.932;4.442;2022-07-23T15:00:55;44.70;29.30
22418;DHT22;11376;50.932;4.442;2022-07-23T15:03:21;44.00;29.50
22418;DHT22;11376;50.932;4.442;2022-07-23T15:05:47;43.40;30.00
22418;DHT22;11376;50.932;4.442;2022-07-23T15:08:12;42.60;30.60
22418;DHT22;11376;50.932;4.442;2022-07-23T15:10:38;41.70;31.60
22418;DHT22;11376;50.932;4.442;2022-07-23T15:13:03;41.20;32.30
22418;DHT22;11376;50.932;4.442;2022-07-23T15:15:30;41.50;33.30
22418;DHT22;11376;50.932;4.442;2022-07-23T15:17:55;42.20;31.50
22418;DHT22;11376;50.932;4.442;2022-07-23T15:20:21;42.80;30.80
22418;DHT22;11376;50.932;4.442;2022-07-23T15:22:46;43.00;30.40
22418;DHT22;11376;50.932;4.442;2022-07-23T15:25:13;42.90;30.90
22418;DHT22;11376;50.932;4.442;2022-07-23T15:27:39;43.30;30.70
22418;DHT22;11376;50.932;4.442;2022-07-23T15:30:06;43.70;30.00
22418;DHT22;11376;50.932;4.442;2022-07-23T15:32:31;44.10;29.50
22418;DHT22;11376;50.932;4.442;2022-07-23T15:34:57;44.60;29.30
22418;DHT22;11376;50.932;4.442;2022-07-23T15:37:23;45.00;30.10
22418;DHT22;11376;50.932;4.442;2022-07-23T15:39:49;45.50;28.70
22418;DHT22;11376;50.932;4.442;2022-07-23T15:42:15;46.00;29.10
22418;DHT22;11376;50.932;4.442;2022-07-23T15:44:42;45.80;28.30
22418;DHT22;11376;50.932;4.442;2022-07-23T15:47:13;44.80;28.70
22418;DHT22;11376;50.932;4.442;2022-07-23T15:49:39;44.10;29.40
22418;DHT22;11376;50.932;4.442;2022-07-23T15:52:04;43.70;29.70
22418;DHT22;11376;50.932;4.442;2022-07-23T15:54:30;43.60;30.60
22418;DHT22;11376;50.932;4.442;2022-07-23T15:56:56;43.40;31.80
22418;DHT22;11376;50.932;4.442;2022-07-23T15:59:22;43.00;31.10
22418;DHT22;11376;50.932;4.442;2022-07-23T16:01:47;42.40;30.40
22418;DHT22;11376;50.932;4.442;2022-07-23T16:04:13;41.90;31.00
22418;DHT22;11376;50.932;4.442;2022-07-23T16:06:39;41.60;31.20
22418;DHT22;11376;50.932;4.442;2022-07-23T16:09:07;41.20;32.00
22418;DHT22;11376;50.932;4.442;2022-07-23T16:11:33;40.60;32.50
22418;DHT22;11376;50.932;4.442;2022-07-23T16:13:59;40.60;32.80
22418;DHT22;11376;50.932;4.442;2022-07-23T16:16:25;39.90;33.10
22418;DHT22;11376;50.932;4.442;2022-07-23T16:18:54;39.60;34.00
22418;DHT22;11376;50.932;4.442;2022-07-23T16:21:20;40.00;32.90
22418;DHT22;11376;50.932;4.442;2022-07-23T16:23:46;40.70;32.30